createdAt,value
2018-12-21T00:00:24.772Z,96099.88
2018-12-21T00:02:54.961Z,96106.25
2018-12-21T00:05:25.714Z,96104.16
2018-12-21T00:07:56.056Z,96103.27
2018-12-21T00:10:26.218Z,96106.39
2018-12-21T00:12:56.429Z,96101.50
2018-12-21T00:15:26.779Z,96108.34
2018-12-21T00:17:57.047Z,96120.48
2018-12-21T00:20:27.367Z,96116.66
2018-12-21T00:22:57.649Z,96119.69
2018-12-21T00:25:27.837Z,96116.88
2018-12-21T00:27:57.913Z,96123.25
2018-12-21T00:30:27.177Z,96124.52
2018-12-21T00:33:02.723Z,96126.38
2018-12-21T00:35:38.227Z,96122.30
2018-12-21T00:38:13.308Z,96126.11
2018-12-21T00:40:48.723Z,96131.59
2018-12-21T00:43:35.115Z,96136.47
2018-12-21T00:46:13.778Z,96139.00
2018-12-21T00:48:44.116Z,96134.14
2018-12-21T00:51:14.579Z,96135.53
2018-12-21T00:53:45.424Z,96135.99
2018-12-21T00:56:15.536Z,96132.53
2018-12-21T00:58:45.678Z,96132.53
2018-12-21T01:01:16.052Z,96132.53
2018-12-21T01:03:46.368Z,96127.91
2018-12-21T01:06:16.832Z,96134.60
2018-12-21T01:08:47.238Z,96132.73
2018-12-21T01:11:17.608Z,96136.65
2018-12-21T01:13:47.769Z,96137.67
2018-12-21T01:16:18.371Z,96132.69
2018-12-21T01:18:48.572Z,96135.49
2018-12-21T01:21:19.237Z,96132.95
2018-12-21T01:23:50.103Z,96129.28
2018-12-21T01:26:20.520Z,96129.38
2018-12-21T01:28:51.294Z,96135.64
2018-12-21T01:31:21.580Z,96129.33
2018-12-21T01:33:51.854Z,96127.10
2018-12-21T01:36:22.374Z,96126.79
2018-12-21T01:38:52.585Z,96130.53
2018-12-21T01:41:22.904Z,96126.86
2018-12-21T01:43:53.777Z,96124.52
2018-12-21T01:46:24.080Z,96127.66
2018-12-21T01:48:54.360Z,96126.15
2018-12-21T01:51:24.689Z,96122.00
2018-12-21T01:53:54.914Z,96127.20
2018-12-21T01:56:25.283Z,96123.14
2018-12-21T01:58:55.441Z,96126.97
2018-12-21T02:01:25.662Z,96125.34
2018-12-21T02:03:55.748Z,96123.14
2018-12-21T02:06:26.127Z,96125.94
2018-12-21T02:08:56.259Z,96129.86
2018-12-21T02:11:26.602Z,96121.30
2018-12-21T02:13:56.710Z,96121.20
2018-12-21T02:16:28.924Z,96128.23
2018-12-21T02:18:59.205Z,96118.16
2018-12-21T02:21:29.395Z,96122.69
2018-12-21T02:23:59.624Z,96115.86
2018-12-21T02:26:29.934Z,96104.84
2018-12-21T02:29:00.319Z,96114.07
2018-12-21T02:31:30.576Z,96116.61
2018-12-21T02:34:00.804Z,96115.80
2018-12-21T02:36:31.013Z,96118.09
2018-12-21T02:39:01.683Z,96116.61
2018-12-21T02:41:33.082Z,96113.15
2018-12-21T02:44:03.770Z,96119.01
2018-12-21T02:46:33.841Z,96119.45
2018-12-21T02:49:03.975Z,96114.83
2018-12-21T02:51:34.213Z,96122.11
2018-12-21T02:54:05.115Z,96127.14
2018-12-21T02:56:35.510Z,96124.14
2018-12-21T02:59:05.704Z,96124.28
2018-12-21T03:01:36.037Z,96129.02
2018-12-21T03:04:06.718Z,96128.09
2018-12-21T03:06:36.909Z,96117.81
2018-12-21T03:09:10.279Z,96130.86
2018-12-21T03:11:40.464Z,96138.73
2018-12-21T03:14:11.306Z,96130.25
2018-12-21T03:16:41.413Z,96135.13
2018-12-21T03:19:12.004Z,96138.44
2018-12-21T03:21:42.298Z,96135.28
2018-12-21T03:24:12.670Z,96136.64
2018-12-21T03:26:42.920Z,96129.30
2018-12-21T03:29:13.194Z,96134.51
2018-12-21T03:31:43.349Z,96133.93
2018-12-21T03:34:13.506Z,96137.69
2018-12-21T03:36:43.724Z,96134.02
2018-12-21T03:39:14.747Z,96124.61
2018-12-21T03:41:44.912Z,96125.35
2018-12-21T03:44:15.164Z,96130.94
2018-12-21T03:46:45.324Z,96132.06
2018-12-21T03:49:15.585Z,96130.59
2018-12-21T03:51:45.964Z,96135.66
2018-12-21T03:54:16.288Z,96132.11
2018-12-21T03:56:46.693Z,96137.56
2018-12-21T03:59:16.959Z,96134.70
2018-12-21T04:01:47.189Z,96128.49
2018-12-21T04:04:17.555Z,96132.42
2018-12-21T04:06:47.901Z,96137.91
2018-12-21T04:09:18.083Z,96127.04
2018-12-21T04:11:48.383Z,96113.50
2018-12-21T04:14:18.800Z,96124.33
2018-12-21T04:16:50.318Z,96120.94
2018-12-21T04:19:20.567Z,96123.70
2018-12-21T04:21:50.940Z,96130.95
2018-12-21T04:24:21.224Z,96127.23
2018-12-21T04:26:52.823Z,96126.63
2018-12-21T04:29:23.104Z,96126.78
2018-12-21T04:31:53.291Z,96115.08
2018-12-21T04:34:23.557Z,96123.53
2018-12-21T04:36:54.969Z,96121.42
2018-12-21T04:39:25.224Z,96119.31
2018-12-21T04:41:55.489Z,96127.34
2018-12-21T04:44:26.250Z,96130.11
2018-12-21T04:46:57.192Z,96134.17
2018-12-21T04:49:27.361Z,96119.16
2018-12-21T04:51:57.690Z,96130.23
2018-12-21T04:54:28.307Z,96130.41
2018-12-21T04:56:58.731Z,96130.89
2018-12-21T04:59:28.952Z,96128.05
2018-12-21T05:01:59.201Z,96132.23
2018-12-21T05:04:29.544Z,96131.56
2018-12-21T05:07:00.098Z,96128.62
2018-12-21T05:09:31.364Z,96129.80
2018-12-21T05:12:01.844Z,96134.11
2018-12-21T05:14:33.726Z,96141.84
2018-12-21T05:17:03.899Z,96139.82
2018-12-21T05:19:34.816Z,96139.66
2018-12-21T05:22:05.746Z,96131.51
2018-12-21T05:24:36.390Z,96138.45
2018-12-21T05:27:07.433Z,96141.41
2018-12-21T05:29:39.596Z,96141.66
2018-12-21T05:32:11.327Z,96143.76
2018-12-21T05:34:42.045Z,96146.09
2018-12-21T05:37:13.364Z,96143.09
2018-12-21T05:39:44.402Z,96156.91
2018-12-21T05:42:14.702Z,96153.59
2018-12-21T05:44:45.345Z,96153.50
2018-12-21T05:47:17.869Z,96154.81
2018-12-21T05:49:48.579Z,96165.92
2018-12-21T05:52:19.294Z,96159.80
2018-12-21T05:54:50.065Z,96160.40
2018-12-21T05:57:20.731Z,96169.98
2018-12-21T05:59:52.201Z,96166.87
2018-12-21T06:02:24.339Z,96165.09
2018-12-21T06:04:55.530Z,96173.23
2018-12-21T06:07:26.145Z,96178.42
2018-12-21T06:09:56.466Z,96184.23
2018-12-21T06:12:27.176Z,96181.69
2018-12-21T06:14:59.011Z,96184.72
2018-12-21T06:17:29.791Z,96178.47
2018-12-21T06:20:01.285Z,96171.29
2018-12-21T06:22:32.482Z,96174.54
2018-12-21T06:25:03.854Z,96171.96
2018-12-21T06:27:34.952Z,96172.38
2018-12-21T06:30:06.898Z,96165.45
2018-12-21T06:32:40.022Z,96166.78
2018-12-21T06:35:10.956Z,96166.42
2018-12-21T06:37:41.148Z,96164.33
2018-12-21T06:40:11.989Z,96161.53
2018-12-21T06:42:42.985Z,96163.88
2018-12-21T06:45:14.064Z,96153.49
2018-12-21T06:47:45.046Z,96152.17
2018-12-21T06:50:18.204Z,96152.87
2018-12-21T06:52:50.122Z,96155.51
2018-12-21T06:55:21.288Z,96153.55
2018-12-21T06:57:52.300Z,96156.85
2018-12-21T07:00:23.000Z,96142.95
2018-12-21T07:02:53.734Z,96139.50
2018-12-21T07:05:25.113Z,96151.77
2018-12-21T07:07:56.080Z,96147.59
2018-12-21T07:10:26.608Z,96148.77
2018-12-21T07:12:57.387Z,96140.58
2018-12-21T07:15:28.545Z,96147.67
2018-12-21T07:18:01.925Z,96157.64
2018-12-21T07:20:34.504Z,96166.23
2018-12-21T07:23:04.720Z,96169.01
2018-12-21T07:25:35.361Z,96173.07
2018-12-21T07:28:05.748Z,96172.59
2018-12-21T07:30:36.407Z,96179.30
2018-12-21T07:33:07.542Z,96179.65
2018-12-21T07:35:37.745Z,96190.09
2018-12-21T07:38:08.196Z,96193.44
2018-12-21T07:40:38.467Z,96186.37
2018-12-21T07:43:10.085Z,96185.99
2018-12-21T07:45:40.699Z,96185.28
2018-12-21T07:48:11.530Z,96200.66
2018-12-21T07:50:42.681Z,96201.12
2018-12-21T07:53:13.238Z,96190.59
2018-12-21T07:55:43.926Z,96197.45
2018-12-21T07:58:14.652Z,96200.66
2018-12-21T08:00:45.520Z,96200.09
2018-12-21T08:03:16.820Z,96204.95
2018-12-21T08:05:47.419Z,96214.45
2018-12-21T08:08:19.264Z,96207.38
2018-12-21T08:10:49.808Z,96202.68
2018-12-21T08:13:20.581Z,96199.13
2018-12-21T08:15:50.964Z,96197.94
2018-12-21T08:18:22.971Z,96200.93
2018-12-21T08:20:53.451Z,96198.61
2018-12-21T08:23:24.202Z,96205.87
2018-12-21T08:25:55.303Z,96204.56
2018-12-21T08:28:25.997Z,96196.98
2018-12-21T08:30:56.462Z,96196.86
2018-12-21T08:33:27.581Z,96192.48
2018-12-21T08:35:58.473Z,96196.45
2018-12-21T08:38:29.277Z,96188.42
2018-12-21T08:41:01.009Z,96193.84
2018-12-21T08:43:31.775Z,96193.44
2018-12-21T08:46:02.397Z,96189.17
2018-12-21T08:48:32.951Z,96195.23
2018-12-21T08:51:03.393Z,96196.25
2018-12-21T08:53:36.099Z,96196.56
2018-12-21T08:56:06.328Z,96195.68
2018-12-21T08:58:37.799Z,96176.61
2018-12-21T09:01:07.920Z,96173.42
2018-12-21T09:03:38.955Z,96174.59
2018-12-21T09:06:18.298Z,96169.49
2018-12-21T09:08:42.905Z,96170.58
2018-12-21T09:11:13.649Z,96156.13
2018-12-21T09:13:43.913Z,96158.75
2018-12-21T09:16:14.767Z,96170.98
2018-12-21T09:18:45.338Z,96181.06
2018-12-21T09:21:15.598Z,96175.35
2018-12-21T09:23:46.769Z,96171.82
2018-12-21T09:26:17.440Z,96165.20
2018-12-21T09:28:47.807Z,96163.77
2018-12-21T09:31:19.805Z,96175.27
2018-12-21T09:33:50.475Z,96171.11
2018-12-21T09:36:22.400Z,96164.08
2018-12-21T09:38:53.519Z,96148.27
2018-12-21T09:41:23.696Z,96140.84
2018-12-21T09:43:54.842Z,96135.69
2018-12-21T09:46:26.165Z,96131.04
2018-12-21T09:48:57.085Z,96125.27
2018-12-21T09:51:27.802Z,96121.67
2018-12-21T09:53:59.015Z,96102.39
2018-12-21T09:56:31.552Z,96108.89
2018-12-21T09:59:03.564Z,96096.47
2018-12-21T10:01:34.035Z,96103.21
2018-12-21T10:04:05.234Z,96095.42
2018-12-21T10:06:36.145Z,96092.39
2018-12-21T10:09:08.959Z,96091.72
2018-12-21T10:11:40.021Z,96085.05
2018-12-21T10:14:11.034Z,96092.64
2018-12-21T10:16:41.883Z,96090.62
2018-12-21T10:19:14.285Z,96086.06
2018-12-21T10:21:45.394Z,96090.14
2018-12-21T10:24:18.611Z,96093.12
2018-12-21T10:26:49.000Z,96101.27
2018-12-21T10:29:19.931Z,96105.03
2018-12-21T10:31:51.033Z,96106.87
2018-12-21T10:34:22.765Z,96097.11
2018-12-21T10:36:53.373Z,96097.75
2018-12-21T10:39:24.769Z,96096.38
2018-12-21T10:41:55.076Z,96096.11
2018-12-21T10:44:26.077Z,96084.15
2018-12-21T10:46:56.601Z,96080.91
2018-12-21T10:49:31.872Z,96079.08
2018-12-21T10:52:00.167Z,96078.63
2018-12-21T10:54:30.659Z,96080.58
2018-12-21T10:57:01.239Z,96077.13
2018-12-21T10:59:31.862Z,96066.73
2018-12-21T11:02:02.583Z,96067.66
2018-12-21T11:04:33.495Z,96068.45
2018-12-21T11:07:04.569Z,96052.21
2018-12-21T11:09:34.799Z,96056.78
2018-12-21T11:12:05.689Z,96048.39
2018-12-21T11:14:36.541Z,96044.18
2018-12-21T11:17:07.440Z,96040.13
2018-12-21T11:19:38.020Z,96034.53
2018-12-21T11:22:08.382Z,96043.03
2018-12-21T11:24:39.151Z,96037.40
2018-12-21T11:27:10.067Z,96031.80
2018-12-21T11:29:44.642Z,96040.06
2018-12-21T11:32:14.999Z,96042.01
2018-12-21T11:34:45.135Z,96042.05
2018-12-21T11:37:16.060Z,96042.59
2018-12-21T11:39:50.800Z,96031.34
2018-12-21T11:42:21.897Z,96043.11
2018-12-21T11:44:53.016Z,96022.59
2018-12-21T11:47:23.697Z,96020.55
2018-12-21T11:49:54.789Z,96027.72
2018-12-21T11:52:25.427Z,96022.24
2018-12-21T11:54:55.680Z,96010.84
2018-12-21T11:57:25.932Z,96004.91
2018-12-21T11:59:56.759Z,96015.83
2018-12-21T12:02:27.836Z,96005.05
2018-12-21T12:04:58.693Z,96003.58
2018-12-21T12:07:28.826Z,96009.91
2018-12-21T12:09:59.853Z,96006.55
2018-12-21T12:12:31.096Z,96008.19
2018-12-21T12:15:02.337Z,96004.66
2018-12-21T12:17:32.598Z,96017.02
2018-12-21T12:20:03.961Z,96015.39
2018-12-21T12:22:36.926Z,96002.78
2018-12-21T12:25:07.745Z,96003.20
2018-12-21T12:27:38.657Z,96005.58
2018-12-21T12:30:10.564Z,96006.06
2018-12-21T12:32:41.535Z,95998.35
2018-12-21T12:35:12.218Z,95995.55
2018-12-21T12:37:42.883Z,96002.42
2018-12-21T12:40:13.814Z,96014.45
2018-12-21T12:42:44.900Z,95997.25
2018-12-21T12:45:15.323Z,95999.44
2018-12-21T12:47:46.094Z,95992.31
2018-12-21T12:50:16.677Z,95992.81
2018-12-21T12:52:47.337Z,95989.67
2018-12-21T12:55:17.982Z,95995.44
2018-12-21T12:57:48.479Z,95998.95
2018-12-21T13:00:19.305Z,95996.68
2018-12-21T13:02:50.379Z,96001.72
2018-12-21T13:05:21.100Z,96006.70
2018-12-21T13:07:52.189Z,96005.94
2018-12-21T13:10:23.130Z,96001.25
2018-12-21T13:12:54.028Z,96000.27
2018-12-21T13:15:25.384Z,96009.43
2018-12-21T13:17:55.875Z,96005.56
2018-12-21T13:20:28.390Z,96003.48
2018-12-21T13:22:59.326Z,95995.95
2018-12-21T13:25:30.302Z,95999.33
2018-12-21T13:28:01.293Z,96007.17
2018-12-21T13:30:31.858Z,96007.13
2018-12-21T13:33:02.342Z,96004.43
2018-12-21T13:35:33.164Z,96006.02
2018-12-21T13:38:04.215Z,96011.66
2018-12-21T13:40:36.200Z,96012.19
2018-12-21T13:43:07.110Z,96004.45
2018-12-21T13:45:37.935Z,96005.27
2018-12-21T13:48:08.317Z,96009.52
2018-12-21T13:50:38.884Z,96000.13
2018-12-21T13:53:09.366Z,96008.41
2018-12-21T13:55:39.907Z,95995.92
2018-12-21T13:58:10.659Z,95996.91
2018-12-21T14:00:40.907Z,95993.01
2018-12-21T14:03:11.648Z,95995.30
2018-12-21T14:05:42.266Z,95993.61
2018-12-21T14:08:14.067Z,95987.58
2018-12-21T14:10:44.993Z,95988.43
2018-12-21T14:13:15.333Z,95986.54
2018-12-21T14:15:46.270Z,95981.88
2018-12-21T14:18:17.555Z,95986.70
2018-12-21T14:20:48.901Z,95989.41
2018-12-21T14:23:19.400Z,96000.28
2018-12-21T14:25:50.010Z,96001.73
2018-12-21T14:28:20.725Z,96005.10
2018-12-21T14:30:51.014Z,96011.12
2018-12-21T14:33:21.821Z,96009.39
2018-12-21T14:35:52.600Z,96015.62
2018-12-21T14:38:24.195Z,96012.60
2018-12-21T14:40:55.066Z,96015.95
2018-12-21T14:43:25.431Z,96014.13
2018-12-21T14:45:56.184Z,96022.64
2018-12-21T14:48:27.395Z,96023.17
2018-12-21T14:50:59.469Z,96019.80
2018-12-21T14:53:30.172Z,96019.97
2018-12-21T14:56:00.756Z,96021.05
2018-12-21T14:58:32.401Z,96020.60
2018-12-21T15:01:03.341Z,96019.91
2018-12-21T15:03:34.285Z,96019.78
2018-12-21T15:06:04.805Z,96019.11
2018-12-21T15:08:35.145Z,96009.07
2018-12-21T15:11:06.362Z,96021.11
2018-12-21T15:13:36.644Z,96028.98
2018-12-21T15:16:07.653Z,96025.66
2018-12-21T15:18:38.915Z,96018.64
2018-12-21T15:21:10.151Z,96022.43
2018-12-21T15:23:43.113Z,96026.72
2018-12-21T15:26:14.213Z,96027.53
2018-12-21T15:28:45.246Z,96020.81
2018-12-21T15:31:16.928Z,96021.59
2018-12-21T15:33:47.322Z,96029.91
2018-12-21T15:36:17.844Z,96025.31
2018-12-21T15:38:49.568Z,96030.48
2018-12-21T15:41:21.783Z,96029.73
2018-12-21T15:43:52.822Z,96032.69
2018-12-21T15:46:23.032Z,96013.48
2018-12-21T15:48:54.004Z,96032.16
2018-12-21T15:51:25.016Z,96036.25
2018-12-21T15:53:56.785Z,96033.33
2018-12-21T15:56:27.942Z,96029.05
2018-12-21T15:58:58.445Z,96015.61
2018-12-21T16:01:36.904Z,96019.58
2018-12-21T16:04:03.428Z,96016.80
2018-12-21T16:06:35.662Z,96014.36
2018-12-21T16:09:08.195Z,96000.11
2018-12-21T16:11:38.740Z,96014.73
2018-12-21T16:14:09.364Z,96005.98
2018-12-21T16:16:40.188Z,95995.36
2018-12-21T16:20:39.703Z,96001.02
2018-12-21T16:23:09.904Z,95996.92
2018-12-21T16:25:41.115Z,96002.92
2018-12-21T16:28:11.608Z,96011.73
2018-12-21T16:30:43.074Z,96014.25
2018-12-21T16:33:14.152Z,96021.05
2018-12-21T16:35:44.390Z,96024.38
2018-12-21T16:38:16.022Z,96029.94
2018-12-21T16:40:47.552Z,96038.48
2018-12-21T16:43:19.217Z,96047.06
2018-12-21T16:45:50.344Z,96043.58
2018-12-21T16:48:21.731Z,96045.78
2018-12-21T16:50:52.708Z,96051.81
2018-12-21T16:53:25.265Z,96044.89
2018-12-21T16:55:55.932Z,96038.55
2018-12-21T16:58:27.904Z,96038.11
2018-12-21T17:00:58.509Z,96043.34
2018-12-21T17:03:29.078Z,96042.55
2018-12-21T17:06:00.563Z,96035.70
2018-12-21T17:08:31.667Z,96035.09
2018-12-21T17:11:04.325Z,96032.08
2018-12-21T17:13:34.836Z,96031.16
2018-12-21T17:16:05.723Z,96022.98
2018-12-21T17:18:37.170Z,96023.89
2018-12-21T17:21:08.024Z,96017.56
2018-12-21T17:23:38.773Z,96019.02
2018-12-21T17:26:09.813Z,96024.46
2018-12-21T17:28:40.763Z,96016.38
2018-12-21T17:31:12.023Z,96012.56
2018-12-21T17:33:42.774Z,96014.33
2018-12-21T17:36:17.223Z,96006.09
2018-12-21T17:38:48.147Z,96008.77
2018-12-21T17:41:18.849Z,95997.11
2018-12-21T17:43:49.457Z,96001.73
2018-12-21T17:46:19.830Z,96001.05
2018-12-21T17:48:50.200Z,95995.12
2018-12-21T17:51:21.246Z,95999.38
2018-12-21T17:53:51.855Z,95999.47
2018-12-21T17:56:29.884Z,96001.09
2018-12-21T17:58:55.064Z,95999.70
2018-12-21T18:01:26.058Z,96007.34
2018-12-21T18:04:02.828Z,96002.38
2018-12-21T18:06:33.042Z,96002.72
2018-12-21T18:09:03.853Z,96006.05
2018-12-21T18:11:35.186Z,96005.70
2018-12-21T18:14:05.981Z,96007.79
2018-12-21T18:16:36.742Z,95996.49
2018-12-21T18:19:07.645Z,96000.77
2018-12-21T18:22:44.343Z,96002.64
2018-12-21T18:25:17.945Z,95994.20
2018-12-21T18:27:51.261Z,95982.62
2018-12-21T18:30:33.213Z,95982.52
2018-12-21T18:33:10.505Z,95989.72
2018-12-21T18:35:38.480Z,95983.93
2018-12-21T18:38:13.301Z,95985.20
2018-12-21T18:40:44.570Z,95982.31
2018-12-21T18:43:15.412Z,95980.12
2018-12-21T18:45:46.185Z,95979.67
2018-12-21T18:48:16.942Z,95983.00
2018-12-21T18:50:47.483Z,95985.20
2018-12-21T18:53:17.773Z,95978.48
2018-12-21T18:55:50.916Z,95978.48
2018-12-21T18:58:21.975Z,95982.89
2018-12-21T19:00:52.577Z,95981.72
2018-12-21T19:03:23.116Z,95982.16
2018-12-21T19:05:53.409Z,95983.20
2018-12-21T19:08:24.162Z,95978.98
2018-12-21T19:10:54.311Z,95980.08
2018-12-21T19:13:24.709Z,95974.88
2018-12-21T19:15:55.237Z,95971.67
2018-12-21T19:18:26.682Z,95971.48
2018-12-21T19:20:56.987Z,95957.69
2018-12-21T19:23:27.197Z,95960.25
2018-12-21T19:25:57.454Z,95955.53
2018-12-21T19:28:27.736Z,95948.25
2018-12-21T19:30:58.041Z,95945.14
2018-12-21T19:33:28.175Z,95943.86
2018-12-21T19:35:59.278Z,95946.19
2018-12-21T19:38:29.689Z,95941.31
2018-12-21T19:41:00.073Z,95941.65
2018-12-21T19:43:30.261Z,95939.79
2018-12-21T19:46:01.168Z,95938.91
2018-12-21T19:48:31.492Z,95940.17
2018-12-21T19:51:01.621Z,95937.30
2018-12-21T19:53:32.067Z,95943.88
2018-12-21T19:56:48.414Z,95937.75
2018-12-21T19:59:18.666Z,95934.03
2018-12-21T20:01:50.015Z,95923.19
2018-12-21T20:04:20.556Z,95928.96
2018-12-21T20:06:53.261Z,95920.08
2018-12-21T20:09:23.726Z,95925.62
2018-12-21T20:11:53.909Z,95913.59
2018-12-21T20:14:24.032Z,95918.80
2018-12-21T20:16:54.545Z,95922.05
2018-12-21T20:19:24.869Z,95920.06
2018-12-21T20:21:55.235Z,95922.05
2018-12-21T20:24:28.851Z,95916.95
2018-12-21T20:27:13.079Z,95912.19
2018-12-21T20:29:36.757Z,95923.55
2018-12-21T20:32:07.143Z,95913.47
2018-12-21T20:34:37.431Z,95919.14
2018-12-21T20:37:07.782Z,95907.34
2018-12-21T20:39:40.795Z,95908.98
2018-12-21T20:42:11.177Z,95903.31
2018-12-21T20:44:41.465Z,95908.28
2018-12-21T20:47:11.969Z,95913.01
2018-12-21T20:49:42.399Z,95901.80
2018-12-21T20:52:12.791Z,95886.90
2018-12-21T20:54:42.952Z,95907.13
2018-12-21T20:57:21.656Z,95895.92
2018-12-21T20:59:47.007Z,95877.19
2018-12-21T21:02:17.878Z,95884.47
2018-12-21T21:04:48.110Z,95894.73
2018-12-21T21:07:18.362Z,95888.16
2018-12-21T21:09:48.781Z,95872.67
2018-12-21T21:12:18.991Z,95877.20
2018-12-21T21:14:49.264Z,95887.02
2018-12-21T21:17:19.866Z,95874.87
2018-12-21T21:19:50.018Z,95875.34
2018-12-21T21:22:20.103Z,95891.30
2018-12-21T21:24:50.382Z,95866.81
2018-12-21T21:27:20.567Z,95873.14
2018-12-21T21:29:50.770Z,95891.08
2018-12-21T21:32:21.090Z,95875.59
2018-12-21T21:34:51.491Z,95871.77
2018-12-21T21:37:21.824Z,95873.73
2018-12-21T21:39:51.820Z,95868.66
2018-12-21T21:42:21.985Z,95880.78
2018-12-21T21:44:52.219Z,95876.27
2018-12-21T21:47:22.738Z,95878.13
2018-12-21T21:49:52.861Z,95882.95
2018-12-21T21:52:22.949Z,95888.17
2018-12-21T21:54:53.224Z,95866.91
2018-12-21T21:57:27.361Z,95872.70
2018-12-21T21:59:57.811Z,95879.97
2018-12-21T22:02:28.182Z,95878.59
2018-12-21T22:04:58.431Z,95890.16
2018-12-21T22:07:28.624Z,95873.84
2018-12-21T22:09:59.654Z,95858.47
2018-12-21T22:12:29.832Z,95870.37
2018-12-21T22:15:00.244Z,95872.21
2018-12-21T22:17:30.485Z,95863.32
2018-12-21T22:20:00.762Z,95860.80
2018-12-21T22:22:30.876Z,95852.95
2018-12-21T22:25:01.058Z,95849.14
2018-12-21T22:27:31.261Z,95858.81
2018-12-21T22:30:01.560Z,95872.34
2018-12-21T22:32:31.975Z,95857.20
2018-12-21T22:35:03.033Z,95861.59
2018-12-21T22:37:33.140Z,95861.16
2018-12-21T22:40:03.412Z,95855.13
2018-12-21T22:42:33.644Z,95862.63
2018-12-21T22:45:04.066Z,95836.28
2018-12-21T22:47:34.156Z,95859.96
2018-12-21T22:50:04.765Z,95848.39
2018-12-21T22:52:34.964Z,95835.94
2018-12-21T22:55:05.763Z,95848.77
2018-12-21T22:57:35.954Z,95840.58
2018-12-21T23:00:11.429Z,95852.00
2018-12-21T23:02:42.883Z,95834.80
2018-12-21T23:05:13.130Z,95837.33
2018-12-21T23:07:43.293Z,95832.95
2018-12-21T23:10:13.560Z,95830.63
2018-12-21T23:12:43.939Z,95841.70
2018-12-21T23:15:14.262Z,95835.53
2018-12-21T23:17:44.829Z,95830.66
2018-12-21T23:20:14.968Z,95824.18
2018-12-21T23:22:45.175Z,95803.04
2018-12-21T23:25:15.494Z,95812.55
2018-12-21T23:27:45.584Z,95797.14
2018-12-21T23:30:15.793Z,95783.04
2018-12-21T23:32:46.207Z,95789.52
2018-12-21T23:35:16.362Z,95773.81
2018-12-21T23:37:47.740Z,95778.00
2018-12-21T23:40:17.998Z,95780.56
2018-12-21T23:42:48.170Z,95779.64
2018-12-21T23:45:18.374Z,95798.94
2018-12-21T23:47:48.549Z,95796.06
2018-12-21T23:50:18.766Z,95798.98
2018-12-21T23:52:49.333Z,95789.60
2018-12-21T23:55:19.576Z,95803.94
2018-12-21T23:57:49.819Z,95810.75
